createdAt,value
2022-10-19T00:05:51.840Z,47.70
2022-10-19T00:12:01.969Z,47.80
2022-10-19T00:18:16.411Z,48.10
2022-10-19T00:24:29.007Z,48.00
2022-10-19T00:30:42.011Z,47.70
2022-10-19T00:36:52.982Z,47.70
2022-10-19T00:43:03.867Z,47.60
2022-10-19T00:49:18.858Z,47.60
2022-10-19T00:55:31.899Z,47.30
2022-10-19T01:01:44.374Z,47.20
2022-10-19T01:07:56.457Z,47.20
2022-10-19T01:14:15.675Z,47.10
2022-10-19T01:20:58.913Z,47.20
2022-10-19T01:27:48.072Z,47.00
2022-10-19T01:34:04.215Z,47.00
2022-10-19T01:40:20.539Z,47.10
2022-10-19T01:46:35.714Z,47.00
2022-10-19T01:52:48.154Z,47.00
2022-10-19T01:58:57.925Z,47.10
2022-10-19T02:05:09.028Z,47.20
2022-10-19T02:11:21.560Z,47.30
2022-10-19T02:17:36.448Z,47.20
2022-10-19T02:23:51.938Z,47.10
2022-10-19T02:30:07.895Z,47.00
2022-10-19T02:36:22.378Z,47.10
2022-10-19T02:42:34.666Z,46.90
2022-10-19T02:48:44.348Z,47.50
2022-10-19T02:54:56.806Z,46.90
2022-10-19T03:01:10.978Z,46.90
2022-10-19T03:07:22.552Z,46.90
2022-10-19T03:13:34.910Z,46.90
2022-10-19T03:19:47.771Z,47.00
2022-10-19T03:26:00.953Z,47.20
2022-10-19T03:32:13.677Z,46.90
2022-10-19T03:38:27.475Z,46.90
2022-10-19T03:44:38.229Z,46.90
2022-10-19T03:50:53.022Z,46.90
2022-10-19T03:57:04.157Z,46.90
2022-10-19T04:03:18.421Z,46.80
2022-10-19T04:09:28.294Z,46.80
2022-10-19T04:15:37.452Z,46.70
2022-10-19T04:21:53.055Z,46.70
2022-10-19T04:28:04.597Z,46.60
2022-10-19T04:34:15.111Z,46.70
2022-10-19T04:40:26.176Z,46.90
2022-10-19T04:46:37.853Z,47.10
2022-10-19T04:52:51.330Z,47.10
2022-10-19T04:59:03.261Z,47.20
2022-10-19T05:05:18.691Z,47.20
2022-10-19T05:11:29.500Z,47.20
2022-10-19T05:17:40.914Z,47.00
2022-10-19T05:23:54.082Z,47.00
2022-10-19T05:30:06.583Z,47.10
2022-10-19T05:36:23.258Z,47.00
2022-10-19T05:42:32.786Z,46.90
2022-10-19T05:48:44.344Z,46.90
2022-10-19T05:54:58.045Z,46.90
2022-10-19T06:01:11.698Z,46.90
2022-10-19T06:07:24.187Z,47.00
2022-10-19T06:13:35.256Z,46.90
2022-10-19T06:19:45.372Z,46.90
2022-10-19T06:25:56.168Z,46.80
2022-10-19T06:32:08.763Z,47.00
2022-10-19T06:38:19.530Z,46.90
2022-10-19T06:44:31.778Z,46.90
2022-10-19T06:50:44.117Z,46.80
2022-10-19T06:56:56.612Z,46.70
2022-10-19T07:03:09.523Z,46.80
2022-10-19T07:09:19.695Z,46.90
2022-10-19T07:15:30.684Z,46.80
2022-10-19T07:21:44.091Z,46.80
2022-10-19T07:27:58.195Z,46.70
2022-10-19T07:34:13.063Z,46.80
2022-10-19T07:40:24.274Z,46.80
2022-10-19T07:46:39.486Z,46.80
2022-10-19T07:52:49.254Z,46.80
2022-10-19T07:59:00.831Z,46.80
2022-10-19T08:05:15.609Z,46.80
2022-10-19T08:11:29.468Z,46.70
2022-10-19T08:17:41.227Z,46.80
2022-10-19T08:23:51.858Z,46.70
2022-10-19T08:30:04.256Z,46.80
2022-10-19T08:36:15.254Z,46.80
2022-10-19T08:42:27.076Z,46.80
2022-10-19T08:48:39.879Z,46.80
2022-10-19T08:54:52.840Z,46.80
2022-10-19T09:01:07.937Z,46.90
2022-10-19T09:07:30.358Z,46.90
2022-10-19T09:14:00.434Z,46.80
2022-10-19T09:19:59.003Z,46.90
2022-10-19T09:26:14.168Z,46.80
2022-10-19T09:32:25.008Z,46.80
2022-10-19T09:38:37.625Z,46.80
2022-10-19T09:44:48.448Z,46.80
2022-10-19T09:51:02.432Z,46.80
2022-10-19T09:57:15.964Z,46.60
2022-10-19T10:03:50.106Z,46.80
2022-10-19T10:10:01.852Z,46.80
2022-10-19T10:16:17.218Z,46.80
2022-10-19T10:22:33.938Z,46.80
2022-10-19T10:28:47.040Z,46.70
2022-10-19T10:35:02.085Z,46.80
2022-10-19T10:41:13.422Z,46.80
2022-10-19T10:47:22.588Z,46.80
2022-10-19T10:53:42.173Z,46.80
2022-10-19T10:59:58.877Z,46.60
2022-10-19T11:06:13.745Z,46.80
2022-10-19T11:12:26.591Z,46.90
2022-10-19T11:18:41.331Z,46.80
2022-10-19T11:25:02.422Z,46.90
2022-10-19T11:31:13.235Z,46.20
2022-10-19T11:37:29.019Z,45.90
2022-10-19T11:43:43.309Z,46.00
2022-10-19T11:49:59.568Z,46.00
2022-10-19T11:56:12.992Z,46.00
2022-10-19T12:02:35.332Z,46.00
2022-10-19T12:09:08.753Z,45.70
2022-10-19T12:15:30.839Z,45.80
2022-10-19T12:21:45.501Z,46.10
2022-10-19T12:27:54.554Z,46.20
2022-10-19T12:34:08.005Z,45.90
2022-10-19T12:40:25.351Z,45.90
2022-10-19T12:46:36.678Z,45.90
2022-10-19T12:52:54.018Z,46.20
2022-10-19T12:59:05.512Z,46.60
2022-10-19T13:05:27.291Z,46.70
2022-10-19T13:11:38.408Z,46.10
2022-10-19T13:17:52.726Z,46.20
2022-10-19T13:24:05.436Z,46.50
2022-10-19T13:30:50.500Z,46.60
2022-10-19T13:37:15.991Z,47.00
2022-10-19T13:43:29.304Z,46.60
2022-10-19T13:50:22.299Z,46.50
2022-10-19T13:56:47.488Z,46.50
2022-10-19T14:03:14.278Z,47.10
2022-10-19T14:16:25.131Z,47.70
2022-10-19T14:22:39.783Z,48.20
2022-10-19T14:28:52.496Z,47.10
2022-10-19T14:35:07.449Z,46.60
2022-10-19T14:41:30.116Z,46.50
2022-10-19T14:47:41.688Z,47.20
2022-10-19T14:53:54.751Z,47.30
2022-10-19T15:00:06.105Z,47.20
2022-10-19T15:06:23.127Z,47.50
2022-10-19T15:12:39.067Z,47.80
2022-10-19T15:18:50.380Z,47.50
2022-10-19T15:25:06.245Z,46.60
2022-10-19T15:31:22.284Z,46.50
2022-10-19T15:37:35.265Z,46.90
2022-10-19T15:43:51.146Z,47.50
2022-10-19T15:50:05.976Z,48.00
2022-10-19T15:56:20.328Z,47.60
2022-10-19T16:02:36.348Z,47.50
2022-10-19T16:08:53.676Z,47.40
2022-10-19T16:15:09.142Z,47.40
2022-10-19T16:21:20.135Z,47.30
2022-10-19T16:27:30.646Z,47.20
2022-10-19T16:33:45.117Z,47.40
2022-10-19T16:39:58.528Z,46.60
2022-10-19T16:52:28.160Z,45.90
2022-10-19T16:58:38.326Z,46.50
2022-10-19T17:04:50.780Z,46.50
2022-10-19T17:11:01.110Z,47.00
2022-10-19T17:17:15.201Z,47.40
2022-10-19T17:23:28.639Z,48.40
2022-10-19T17:29:38.259Z,48.60
2022-10-19T17:35:49.883Z,48.80
2022-10-19T17:42:00.535Z,49.00
2022-10-19T17:48:11.112Z,49.30
2022-10-19T17:54:23.626Z,49.50
2022-10-19T18:00:40.286Z,48.30
2022-10-19T18:06:49.197Z,47.10
2022-10-19T18:12:58.429Z,48.20
2022-10-19T18:19:07.708Z,49.30
2022-10-19T18:25:21.822Z,49.60
2022-10-19T18:31:29.875Z,49.50
2022-10-19T18:37:38.818Z,49.60
2022-10-19T18:43:52.684Z,49.60
2022-10-19T18:50:05.196Z,49.70
2022-10-19T18:56:22.312Z,49.10
2022-10-19T19:02:46.303Z,49.10
2022-10-19T19:08:50.910Z,48.90
2022-10-19T19:15:00.330Z,49.40
2022-10-19T19:21:13.305Z,49.10
2022-10-19T19:27:31.421Z,49.10
2022-10-19T19:33:41.299Z,48.60
2022-10-19T19:39:54.254Z,47.50
2022-10-19T19:46:09.000Z,47.30
2022-10-19T19:52:22.006Z,47.50
2022-10-19T19:58:36.205Z,47.90
2022-10-19T20:04:50.709Z,47.80
2022-10-19T20:11:10.686Z,47.70
2022-10-19T20:17:24.536Z,47.70
2022-10-19T20:23:37.424Z,47.80
2022-10-19T20:29:48.795Z,48.00
2022-10-19T20:36:03.496Z,48.10
2022-10-19T20:42:16.361Z,48.50
2022-10-19T20:48:27.501Z,48.00
2022-10-19T20:54:37.572Z,46.80
2022-10-19T21:00:50.104Z,47.00
2022-10-19T21:07:06.476Z,47.20
2022-10-19T21:13:20.918Z,47.20
2022-10-19T21:19:33.950Z,47.40
2022-10-19T21:25:46.850Z,47.50
2022-10-19T21:32:00.017Z,47.20
2022-10-19T21:38:15.641Z,47.30
2022-10-19T21:44:28.027Z,47.10
2022-10-19T21:50:39.039Z,47.30
2022-10-19T21:56:50.293Z,47.10
2022-10-19T22:03:04.376Z,47.20
2022-10-19T22:09:17.293Z,46.90
2022-10-19T22:15:31.458Z,46.90
2022-10-19T22:21:40.940Z,47.00
2022-10-19T22:27:51.682Z,46.90
2022-10-19T22:34:06.590Z,47.10
2022-10-19T22:40:20.424Z,47.00
2022-10-19T22:46:34.935Z,47.00
2022-10-19T22:52:49.214Z,46.90
2022-10-19T22:59:03.551Z,47.00
2022-10-19T23:05:18.404Z,46.80
2022-10-19T23:11:33.838Z,46.00
2022-10-19T23:17:48.389Z,46.30
2022-10-19T23:24:04.151Z,45.10
2022-10-19T23:30:22.579Z,45.40
2022-10-19T23:36:42.636Z,46.60
2022-10-19T23:42:52.652Z,46.90
2022-10-19T23:49:07.584Z,47.70
2022-10-19T23:55:24.042Z,47.60
